Bei Facebook empfehlenBei Twitter postenGoogle plusPinterest

Das Wetter im Erzgebirge am 09.04.2017

Wetter und Klima am 09.04.2017 Holzhau im Erzgebirge (630m ü.NN)
Letzte gemessene Temperatur und Uhrzeit der Messung23:45:00 Uhr5.80 °C
Temperatur (Maximum / Höchstwert) und Uhrzeit der Messung17:30:00 Uhr19.00 °C
Temperatur (Minimum / Tiefstwert) und Uhrzeit der Messung05:30:004.30 °C
Errechneter Absolutwert der Temperaturschwankungen zwischen Tmin und Tmax des Tages14.70 K
Errechnete Tagesmitteltemperatur10.53229 °C
Gesamt - Niederschlag des Tages (in flüssiger Form)0.00 Liter / m²
Luftdruck (Maximum / Höchstwert) und Zeitpunkt der Messung11:30:00 Uhr1021.20 hPa
Luftdruck (Minimum / Tiefstwert) und Zeitpunkt der Messung23:45:00 Uhr1018.00 hPa
Errechneter Absolutwert der Luftdruckschwankungen des Tages3.20 hPa
Höchste gemessene Windgeschwindigkeit und Uhrzeit der Messung21:15:00 Uhr8.64 km/h
Errechnete Windhäufigkeit in Relation zu den Messwerten des Tages35.41667 %
Niedrigste Windkühle (Windchill) und Zeitpunkt der Messung04:30:00 Uhr3.70 °C
Taupunkt (Maximum / Höchstwert) und Uhrzeit der Messung13:30:00 Uhr10.40 °C
Taupunkt (Minimum / Tiefstwert) und Uhrzeit der Messung05:30:003.40 °C
Anzahl der automatisch eingelesenen Messwerte 96

Detaillierte Wetter- und Klima- Messwerte für den 09.04.2017 in Holzhau im Erzgebirge (630m ü.NN)
ZeitTemperaturLuftdruckRel. LuftfeuchteWindWindrichtungWindchillTaupunktNiederschlag l/m²
23:45:005.80 °C1018.00 hPa91.00 %4.40 °C 
23:30:005.90 °C1018.00 hPa90.00 %1.80 km/hO5.90 °C4.40 °C 
23:15:005.90 °C1018.20 hPa90.00 %4.32 km/hSO5.90 °C4.40 °C 
23:00:006.10 °C1018.60 hPa89.00 %4.40 °C 
22:45:006.40 °C1018.60 hPa89.00 %4.70 °C 
22:30:006.60 °C1018.60 hPa89.00 %0.72 km/hSO6.60 °C4.90 °C 
22:15:006.90 °C1018.60 hPa88.00 %4.32 km/hSO6.90 °C5.10 °C 
22:00:007.30 °C1018.80 hPa88.00 %5.04 km/hSO6.70 °C5.40 °C 
21:45:007.50 °C1018.80 hPa88.00 %3.24 km/hOSO7.50 °C5.60 °C 
21:30:007.80 °C1019.10 hPa87.00 %5.04 km/hOSO7.20 °C5.80 °C 
21:15:008.10 °C1019.00 hPa87.00 %8.64 km/hSO6.60 °C6.10 °C 
21:00:008.50 °C1018.90 hPa86.00 %2.88 km/hSO8.50 °C6.30 °C 
20:45:008.90 °C1019.00 hPa84.00 %2.16 km/hOSO8.90 °C6.30 °C 
20:30:009.50 °C1019.10 hPa82.00 %1.80 km/hSO9.50 °C6.60 °C 
20:15:0010.30 °C1018.90 hPa79.00 %1.80 km/hSSO10.30 °C6.80 °C 
20:00:0011.50 °C1019.10 hPa77.00 %7.60 °C 
19:45:0012.40 °C1019.10 hPa77.00 %8.50 °C 
19:30:0013.60 °C1019.10 hPa73.00 %8.90 °C 
19:15:0014.90 °C1019.20 hPa69.00 %9.30 °C 
19:00:0015.80 °C1019.20 hPa66.00 %1.44 km/hOSO15.80 °C9.50 °C 
18:45:0016.50 °C1019.20 hPa62.00 %9.20 °C 
18:30:0017.40 °C1019.30 hPa59.00 %9.30 °C 
18:15:0017.80 °C1019.30 hPa57.00 %9.20 °C 
18:00:0018.40 °C1019.30 hPa55.00 %9.20 °C 
17:45:0018.60 °C1019.50 hPa56.00 %9.70 °C 
17:30:0019.00 °C1019.50 hPa55.00 %9.80 °C 
17:15:0018.40 °C1019.40 hPa57.00 %9.70 °C 
17:00:0017.90 °C1019.50 hPa56.00 %9.00 °C 
16:45:0018.30 °C1019.60 hPa56.00 %9.40 °C 
16:30:0018.30 °C1019.80 hPa57.00 %9.60 °C 
16:15:0017.70 °C1019.80 hPa58.00 %5.40 km/hSW18.40 °C9.30 °C 
16:00:0017.80 °C1019.80 hPa56.00 %8.90 °C 
15:45:0017.40 °C1020.00 hPa57.00 %8.80 °C 
15:30:0017.20 °C1020.30 hPa59.00 %9.10 °C 
15:15:0017.60 °C1020.30 hPa59.00 %9.50 °C 
15:00:0018.10 °C1020.40 hPa58.00 %9.70 °C 
14:45:0017.10 °C1020.60 hPa62.00 %1.08 km/hN17.10 °C9.80 °C 
14:30:0016.50 °C1020.60 hPa61.00 %9.00 °C 
14:15:0016.40 °C1020.80 hPa62.00 %4.68 km/hWNW16.40 °C9.10 °C 
14:00:0016.30 °C1020.70 hPa62.00 %9.00 °C 
13:45:0017.30 °C1020.70 hPa59.00 %9.20 °C 
13:30:0017.80 °C1020.70 hPa62.00 %10.40 °C 
13:15:0016.10 °C1020.90 hPa65.00 %9.50 °C 
13:00:0015.40 °C1020.80 hPa65.00 %8.90 °C 
12:45:0016.50 °C1020.90 hPa62.00 %9.20 °C 
12:30:0016.80 °C1021.00 hPa63.00 %0.72 km/hWNW16.80 °C9.70 °C 
12:15:0016.60 °C1021.00 hPa65.00 %10.00 °C 
12:00:0015.40 °C1021.10 hPa69.00 %6.84 km/hSW15.50 °C9.70 °C 
11:45:0014.10 °C1021.10 hPa69.00 %8.50 °C 
11:30:0014.50 °C1021.20 hPa71.00 %9.30 °C 
11:15:0015.10 °C1021.20 hPa69.00 %1.44 km/hN15.10 °C9.50 °C 
11:00:0015.40 °C1021.20 hPa71.00 %7.56 km/hNNW15.40 °C10.20 °C 
10:45:0014.50 °C1021.20 hPa74.00 %9.90 °C 
10:30:0013.30 °C1021.20 hPa77.00 %6.48 km/hNNW13.20 °C9.40 °C 
10:15:0012.40 °C1021.00 hPa81.00 %7.20 km/hSW12.00 °C9.20 °C 
10:00:0011.90 °C1021.00 hPa81.00 %8.70 °C 
09:45:0011.90 °C1021.00 hPa84.00 %1.80 km/hSSW11.90 °C9.30 °C 
09:30:0011.30 °C1020.90 hPa89.00 %1.80 km/hSW11.30 °C9.60 °C 
09:15:0010.40 °C1020.80 hPa93.00 %9.30 °C 
09:00:009.50 °C1020.70 hPa95.00 %8.70 °C 
08:45:008.60 °C1020.60 hPa95.00 %7.80 °C 
08:30:007.80 °C1020.50 hPa95.00 %1.44 km/hO7.80 °C7.10 °C 
08:15:006.90 °C1020.60 hPa95.00 %6.20 °C 
08:00:006.10 °C1020.60 hPa95.00 %5.40 °C 
07:45:006.10 °C1020.50 hPa95.00 %5.40 °C 
07:30:005.90 °C1020.50 hPa95.00 %5.20 °C 
07:15:005.30 °C1020.40 hPa95.00 %4.60 °C 
07:00:004.80 °C1020.30 hPa95.00 %4.10 °C 
06:45:004.60 °C1020.20 hPa94.00 %1.44 km/hSO4.60 °C3.70 °C 
06:30:004.60 °C1020.10 hPa94.00 %3.24 km/hSO4.60 °C3.70 °C 
06:15:004.60 °C1020.10 hPa94.00 %3.70 °C 
06:00:004.50 °C1020.10 hPa94.00 %3.60 °C 
05:45:004.60 °C1020.20 hPa94.00 %3.70 °C 
05:30:004.30 °C1020.20 hPa94.00 %3.40 °C 
05:15:004.40 °C1020.20 hPa94.00 %3.50 °C 
05:00:004.40 °C1020.20 hPa94.00 %3.50 °C 
04:45:004.60 °C1020.30 hPa94.00 %3.70 °C 
04:30:004.70 °C1020.50 hPa94.00 %5.04 km/hSO3.70 °C3.80 °C 
04:15:005.10 °C1020.40 hPa94.00 %4.20 °C 
04:00:005.30 °C1020.20 hPa94.00 %4.40 °C 
03:45:005.30 °C1020.50 hPa94.00 %4.40 °C 
03:30:005.60 °C1020.50 hPa94.00 %4.70 °C 
03:15:005.30 °C1020.40 hPa94.00 %4.40 °C 
03:00:005.10 °C1020.60 hPa94.00 %3.60 km/hOSO5.10 °C4.20 °C 
02:45:005.10 °C1020.50 hPa94.00 %1.80 km/hOSO5.10 °C4.20 °C 
02:30:005.20 °C1020.60 hPa94.00 %4.30 °C 
02:15:005.30 °C1020.60 hPa94.00 %4.40 °C 
02:00:005.40 °C1020.70 hPa94.00 %4.50 °C 
01:45:005.20 °C1020.80 hPa94.00 %4.30 °C 
01:30:005.00 °C1020.70 hPa93.00 %5.76 km/hO3.80 °C4.00 °C 
01:15:005.10 °C1021.00 hPa93.00 %4.10 °C 
01:00:005.30 °C1021.00 hPa93.00 %3.60 km/hO5.30 °C4.30 °C 
00:45:005.40 °C1020.90 hPa93.00 %3.96 km/hSO5.40 °C4.40 °C 
00:30:005.60 °C1021.00 hPa93.00 %2.52 km/hOSO5.60 °C4.60 °C 
00:15:005.60 °C1021.10 hPa93.00 %4.60 °C 
00:00:005.80 °C1021.10 hPa93.00 %4.80 °C 

Permanenter Link zu dieser Seite: Wetter im Erzgebirge am 09.04.2017
Performance-Info: Die Erstellung der Seite / Statistik(en) / Tabelle(n) erforderte 5 Datenbankserver-Abfrage(n) und dauerte 99 Millisekunden. (Dieser Messwert ist von der Gesamt-Auslastung des Servers abhängig.)
Erzgebirge - Wetter | Erzgebirge - Wetter (Mobilgeräte) | Komplette Klimadatenbank